sensor_id;sensor_type;location;lat;lon;timestamp;P1;durP1;ratioP1;P2;durP2;ratioP2
3081;SDS011;1551;51.046;7.010;2023-07-08T00:02:16;4.80;;;3.63;;
3081;SDS011;1551;51.046;7.010;2023-07-08T00:05:05;4.28;;;3.00;;
3081;SDS011;1551;51.046;7.010;2023-07-08T00:07:56;5.13;;;2.70;;
3081;SDS011;1551;51.046;7.010;2023-07-08T00:10:45;7.43;;;2.90;;
3081;SDS011;1551;51.046;7.010;2023-07-08T00:13:34;4.57;;;3.55;;
3081;SDS011;1551;51.046;7.010;2023-07-08T00:16:23;5.93;;;3.25;;
3081;SDS011;1551;51.046;7.010;2023-07-08T00:19:12;4.40;;;2.88;;
3081;SDS011;1551;51.046;7.010;2023-07-08T00:22:01;4.70;;;3.30;;
3081;SDS011;1551;51.046;7.010;2023-07-08T00:24:50;4.40;;;3.00;;
3081;SDS011;1551;51.046;7.010;2023-07-08T00:27:39;4.80;;;3.10;;
3081;SDS011;1551;51.046;7.010;2023-07-08T00:30:29;4.85;;;3.25;;
3081;SDS011;1551;51.046;7.010;2023-07-08T00:33:19;5.93;;;3.45;;
3081;SDS011;1551;51.046;7.010;2023-07-08T00:36:10;6.70;;;3.40;;
3081;SDS011;1551;51.046;7.010;2023-07-08T00:39:01;5.30;;;3.35;;
3081;SDS011;1551;51.046;7.010;2023-07-08T00:41:51;5.35;;;3.50;;
3081;SDS011;1551;51.046;7.010;2023-07-08T00:44:43;4.20;;;3.00;;
3081;SDS011;1551;51.046;7.010;2023-07-08T00:47:32;5.30;;;3.50;;
3081;SDS011;1551;51.046;7.010;2023-07-08T00:50:22;4.82;;;3.28;;
3081;SDS011;1551;51.046;7.010;2023-07-08T00:53:27;6.05;;;3.25;;
3081;SDS011;1551;51.046;7.010;2023-07-08T00:56:23;4.05;;;3.40;;
3081;SDS011;1551;51.046;7.010;2023-07-08T01:02:04;5.80;;;3.53;;
3081;SDS011;1551;51.046;7.010;2023-07-08T01:05:01;5.90;;;3.20;;
3081;SDS011;1551;51.046;7.010;2023-07-08T01:08:02;4.68;;;3.10;;
3081;SDS011;1551;51.046;7.010;2023-07-08T01:10:53;6.93;;;3.13;;
3081;SDS011;1551;51.046;7.010;2023-07-08T01:13:47;4.70;;;2.90;;
3081;SDS011;1551;51.046;7.010;2023-07-08T01:16:39;5.00;;;3.20;;
3081;SDS011;1551;51.046;7.010;2023-07-08T01:19:28;5.78;;;3.38;;
3081;SDS011;1551;51.046;7.010;2023-07-08T01:22:22;4.53;;;2.70;;
3081;SDS011;1551;51.046;7.010;2023-07-08T01:25:11;4.37;;;3.17;;
3081;SDS011;1551;51.046;7.010;2023-07-08T01:28:02;5.57;;;3.30;;
3081;SDS011;1551;51.046;7.010;2023-07-08T01:30:51;3.92;;;2.95;;
3081;SDS011;1551;51.046;7.010;2023-07-08T01:33:41;5.90;;;3.38;;
3081;SDS011;1551;51.046;7.010;2023-07-08T01:36:31;6.72;;;3.53;;
3081;SDS011;1551;51.046;7.010;2023-07-08T01:39:27;5.00;;;3.20;;
3081;SDS011;1551;51.046;7.010;2023-07-08T01:42:17;6.53;;;3.17;;
3081;SDS011;1551;51.046;7.010;2023-07-08T01:45:13;5.93;;;3.30;;
3081;SDS011;1551;51.046;7.010;2023-07-08T01:48:04;5.72;;;3.10;;
3081;SDS011;1551;51.046;7.010;2023-07-08T01:51:03;4.70;;;3.05;;
3081;SDS011;1551;51.046;7.010;2023-07-08T01:53:53;4.72;;;3.30;;
3081;SDS011;1551;51.046;7.010;2023-07-08T01:56:42;3.90;;;3.03;;
3081;SDS011;1551;51.046;7.010;2023-07-08T01:59:31;5.10;;;3.30;;
3081;SDS011;1551;51.046;7.010;2023-07-08T02:02:19;6.77;;;3.87;;
3081;SDS011;1551;51.046;7.010;2023-07-08T02:05:09;6.07;;;3.28;;
3081;SDS011;1551;51.046;7.010;2023-07-08T02:07:58;6.10;;;3.37;;
3081;SDS011;1551;51.046;7.010;2023-07-08T02:10:52;5.33;;;3.13;;
3081;SDS011;1551;51.046;7.010;2023-07-08T02:13:44;4.47;;;3.60;;
3081;SDS011;1551;51.046;7.010;2023-07-08T02:16:33;5.70;;;3.60;;
3081;SDS011;1551;51.046;7.010;2023-07-08T02:19:22;5.30;;;2.90;;
3081;SDS011;1551;51.046;7.010;2023-07-08T02:22:11;4.30;;;3.30;;
3081;SDS011;1551;51.046;7.010;2023-07-08T02:25:00;5.20;;;3.10;;
3081;SDS011;1551;51.046;7.010;2023-07-08T02:27:49;4.95;;;3.25;;
3081;SDS011;1551;51.046;7.010;2023-07-08T02:30:38;6.10;;;3.10;;
3081;SDS011;1551;51.046;7.010;2023-07-08T02:33:29;4.88;;;3.20;;
3081;SDS011;1551;51.046;7.010;2023-07-08T02:36:21;5.20;;;3.17;;
3081;SDS011;1551;51.046;7.010;2023-07-08T02:39:10;4.53;;;2.97;;
3081;SDS011;1551;51.046;7.010;2023-07-08T02:42:00;3.83;;;2.93;;
3081;SDS011;1551;51.046;7.010;2023-07-08T02:44:49;5.75;;;2.97;;
3081;SDS011;1551;51.046;7.010;2023-07-08T02:47:38;7.05;;;3.80;;
3081;SDS011;1551;51.046;7.010;2023-07-08T02:50:28;5.70;;;3.37;;
3081;SDS011;1551;51.046;7.010;2023-07-08T02:53:17;5.90;;;3.70;;
3081;SDS011;1551;51.046;7.010;2023-07-08T02:56:05;5.00;;;3.15;;
3081;SDS011;1551;51.046;7.010;2023-07-08T02:58:54;5.82;;;3.85;;
3081;SDS011;1551;51.046;7.010;2023-07-08T03:01:43;5.53;;;3.33;;
3081;SDS011;1551;51.046;7.010;2023-07-08T03:04:35;4.87;;;3.23;;
3081;SDS011;1551;51.046;7.010;2023-07-08T03:07:28;4.43;;;3.38;;
3081;SDS011;1551;51.046;7.010;2023-07-08T03:10:17;4.78;;;3.58;;
3081;SDS011;1551;51.046;7.010;2023-07-08T03:13:06;4.82;;;3.38;;
3081;SDS011;1551;51.046;7.010;2023-07-08T03:15:55;4.80;;;3.47;;
3081;SDS011;1551;51.046;7.010;2023-07-08T03:18:45;7.20;;;3.83;;
3081;SDS011;1551;51.046;7.010;2023-07-08T03:21:36;4.57;;;3.30;;
3081;SDS011;1551;51.046;7.010;2023-07-08T03:24:25;5.20;;;3.60;;
3081;SDS011;1551;51.046;7.010;2023-07-08T03:27:15;7.50;;;3.40;;
3081;SDS011;1551;51.046;7.010;2023-07-08T03:30:07;5.03;;;3.58;;
3081;SDS011;1551;51.046;7.010;2023-07-08T03:32:57;5.68;;;3.42;;
3081;SDS011;1551;51.046;7.010;2023-07-08T03:35:46;7.07;;;3.70;;
3081;SDS011;1551;51.046;7.010;2023-07-08T03:38:35;4.63;;;3.45;;
3081;SDS011;1551;51.046;7.010;2023-07-08T03:41:24;5.07;;;3.20;;
3081;SDS011;1551;51.046;7.010;2023-07-08T03:44:13;5.72;;;3.72;;
3081;SDS011;1551;51.046;7.010;2023-07-08T03:47:04;5.40;;;3.53;;
3081;SDS011;1551;51.046;7.010;2023-07-08T03:49:54;5.15;;;3.30;;
3081;SDS011;1551;51.046;7.010;2023-07-08T03:52:44;4.60;;;3.70;;
3081;SDS011;1551;51.046;7.010;2023-07-08T03:55:35;5.30;;;3.60;;
3081;SDS011;1551;51.046;7.010;2023-07-08T03:58:26;5.50;;;3.90;;
3081;SDS011;1551;51.046;7.010;2023-07-08T04:01:15;5.65;;;3.75;;
3081;SDS011;1551;51.046;7.010;2023-07-08T04:04:13;6.10;;;3.70;;
3081;SDS011;1551;51.046;7.010;2023-07-08T04:07:05;6.97;;;3.30;;
3081;SDS011;1551;51.046;7.010;2023-07-08T04:09:55;5.28;;;3.75;;
3081;SDS011;1551;51.046;7.010;2023-07-08T04:12:44;5.88;;;3.53;;
3081;SDS011;1551;51.046;7.010;2023-07-08T04:15:33;5.57;;;4.20;;
3081;SDS011;1551;51.046;7.010;2023-07-08T04:18:22;6.40;;;3.70;;
3081;SDS011;1551;51.046;7.010;2023-07-08T04:21:11;5.10;;;3.72;;
3081;SDS011;1551;51.046;7.010;2023-07-08T04:24:00;5.82;;;3.50;;
3081;SDS011;1551;51.046;7.010;2023-07-08T04:26:49;4.82;;;3.50;;
3081;SDS011;1551;51.046;7.010;2023-07-08T04:29:39;5.43;;;4.00;;
3081;SDS011;1551;51.046;7.010;2023-07-08T04:32:28;6.30;;;4.05;;
3081;SDS011;1551;51.046;7.010;2023-07-08T04:35:17;6.53;;;4.10;;
3081;SDS011;1551;51.046;7.010;2023-07-08T04:38:17;6.68;;;4.30;;
3081;SDS011;1551;51.046;7.010;2023-07-08T04:41:07;6.07;;;4.00;;
3081;SDS011;1551;51.046;7.010;2023-07-08T04:43:56;5.63;;;4.53;;
3081;SDS011;1551;51.046;7.010;2023-07-08T04:49:41;7.07;;;4.22;;
3081;SDS011;1551;51.046;7.010;2023-07-08T04:52:32;5.80;;;3.58;;
3081;SDS011;1551;51.046;7.010;2023-07-08T04:55:21;5.68;;;4.00;;
3081;SDS011;1551;51.046;7.010;2023-07-08T04:58:10;6.57;;;3.80;;
3081;SDS011;1551;51.046;7.010;2023-07-08T05:00:59;5.50;;;4.10;;
3081;SDS011;1551;51.046;7.010;2023-07-08T05:03:48;6.95;;;4.53;;
3081;SDS011;1551;51.046;7.010;2023-07-08T05:06:37;5.45;;;3.70;;
3081;SDS011;1551;51.046;7.010;2023-07-08T05:09:26;4.60;;;3.90;;
3081;SDS011;1551;51.046;7.010;2023-07-08T05:12:16;7.13;;;4.28;;
3081;SDS011;1551;51.046;7.010;2023-07-08T05:15:05;7.40;;;4.00;;
3081;SDS011;1551;51.046;7.010;2023-07-08T05:17:54;6.65;;;3.90;;
3081;SDS011;1551;51.046;7.010;2023-07-08T05:20:49;5.35;;;4.18;;
3081;SDS011;1551;51.046;7.010;2023-07-08T05:23:38;6.78;;;4.40;;
3081;SDS011;1551;51.046;7.010;2023-07-08T05:26:28;6.22;;;3.95;;
3081;SDS011;1551;51.046;7.010;2023-07-08T05:29:17;5.30;;;3.47;;
3081;SDS011;1551;51.046;7.010;2023-07-08T05:32:06;7.75;;;4.20;;
3081;SDS011;1551;51.046;7.010;2023-07-08T05:34:55;8.88;;;4.22;;
3081;SDS011;1551;51.046;7.010;2023-07-08T05:37:44;6.00;;;4.40;;
3081;SDS011;1551;51.046;7.010;2023-07-08T05:40:35;5.50;;;3.95;;
3081;SDS011;1551;51.046;7.010;2023-07-08T05:43:25;6.30;;;4.70;;
3081;SDS011;1551;51.046;7.010;2023-07-08T05:46:14;5.60;;;4.00;;
3081;SDS011;1551;51.046;7.010;2023-07-08T05:49:03;6.55;;;4.00;;
3081;SDS011;1551;51.046;7.010;2023-07-08T05:51:52;5.70;;;3.80;;
3081;SDS011;1551;51.046;7.010;2023-07-08T05:54:41;5.60;;;3.80;;
3081;SDS011;1551;51.046;7.010;2023-07-08T05:57:31;5.50;;;3.85;;
3081;SDS011;1551;51.046;7.010;2023-07-08T06:00:20;6.63;;;3.80;;
3081;SDS011;1551;51.046;7.010;2023-07-08T06:03:09;5.30;;;3.90;;
3081;SDS011;1551;51.046;7.010;2023-07-08T06:05:58;4.43;;;3.30;;
3081;SDS011;1551;51.046;7.010;2023-07-08T06:08:47;7.73;;;4.00;;
3081;SDS011;1551;51.046;7.010;2023-07-08T06:11:36;5.40;;;3.10;;
3081;SDS011;1551;51.046;7.010;2023-07-08T06:14:26;7.25;;;3.60;;
3081;SDS011;1551;51.046;7.010;2023-07-08T06:17:17;6.35;;;4.43;;
3081;SDS011;1551;51.046;7.010;2023-07-08T06:20:06;6.47;;;3.60;;
3081;SDS011;1551;51.046;7.010;2023-07-08T06:22:56;6.00;;;3.92;;
3081;SDS011;1551;51.046;7.010;2023-07-08T06:25:45;6.20;;;4.28;;
3081;SDS011;1551;51.046;7.010;2023-07-08T06:28:34;5.03;;;4.20;;
3081;SDS011;1551;51.046;7.010;2023-07-08T06:31:23;5.00;;;3.55;;
3081;SDS011;1551;51.046;7.010;2023-07-08T06:34:12;7.35;;;4.10;;
3081;SDS011;1551;51.046;7.010;2023-07-08T06:37:01;5.25;;;3.90;;
3081;SDS011;1551;51.046;7.010;2023-07-08T06:39:50;7.63;;;4.40;;
3081;SDS011;1551;51.046;7.010;2023-07-08T06:42:39;5.40;;;3.80;;
3081;SDS011;1551;51.046;7.010;2023-07-08T06:45:52;6.53;;;3.95;;
3081;SDS011;1551;51.046;7.010;2023-07-08T06:48:41;4.88;;;3.90;;
3081;SDS011;1551;51.046;7.010;2023-07-08T06:51:30;4.68;;;3.72;;
3081;SDS011;1551;51.046;7.010;2023-07-08T06:54:19;6.90;;;4.00;;
3081;SDS011;1551;51.046;7.010;2023-07-08T06:57:07;7.80;;;3.97;;
3081;SDS011;1551;51.046;7.010;2023-07-08T06:59:56;5.03;;;3.63;;
3081;SDS011;1551;51.046;7.010;2023-07-08T07:02:46;5.05;;;3.50;;
3081;SDS011;1551;51.046;7.010;2023-07-08T07:05:35;5.40;;;3.92;;
3081;SDS011;1551;51.046;7.010;2023-07-08T07:08:24;6.20;;;3.73;;
3081;SDS011;1551;51.046;7.010;2023-07-08T07:11:13;6.80;;;4.55;;
3081;SDS011;1551;51.046;7.010;2023-07-08T07:14:02;6.10;;;4.13;;
3081;SDS011;1551;51.046;7.010;2023-07-08T07:16:52;5.57;;;3.75;;
3081;SDS011;1551;51.046;7.010;2023-07-08T07:19:41;6.93;;;4.20;;
3081;SDS011;1551;51.046;7.010;2023-07-08T07:22:30;5.70;;;4.20;;
3081;SDS011;1551;51.046;7.010;2023-07-08T07:25:19;5.28;;;3.90;;
3081;SDS011;1551;51.046;7.010;2023-07-08T07:28:08;6.05;;;4.03;;
3081;SDS011;1551;51.046;7.010;2023-07-08T07:30:58;6.22;;;3.95;;
3081;SDS011;1551;51.046;7.010;2023-07-08T07:33:48;5.68;;;4.50;;
3081;SDS011;1551;51.046;7.010;2023-07-08T07:36:37;6.30;;;4.38;;
3081;SDS011;1551;51.046;7.010;2023-07-08T07:39:26;4.80;;;3.50;;
3081;SDS011;1551;51.046;7.010;2023-07-08T07:42:17;6.15;;;4.00;;
3081;SDS011;1551;51.046;7.010;2023-07-08T07:45:08;6.82;;;4.45;;
3081;SDS011;1551;51.046;7.010;2023-07-08T07:47:58;6.13;;;4.30;;
3081;SDS011;1551;51.046;7.010;2023-07-08T07:50:47;5.32;;;4.20;;
3081;SDS011;1551;51.046;7.010;2023-07-08T07:53:38;5.25;;;4.20;;
3081;SDS011;1551;51.046;7.010;2023-07-08T07:56:27;6.23;;;4.23;;
3081;SDS011;1551;51.046;7.010;2023-07-08T07:59:16;6.50;;;4.60;;
3081;SDS011;1551;51.046;7.010;2023-07-08T08:02:05;5.30;;;4.07;;
3081;SDS011;1551;51.046;7.010;2023-07-08T08:04:54;4.90;;;3.90;;
3081;SDS011;1551;51.046;7.010;2023-07-08T08:07:43;5.20;;;4.10;;
3081;SDS011;1551;51.046;7.010;2023-07-08T08:10:32;6.90;;;3.90;;
3081;SDS011;1551;51.046;7.010;2023-07-08T08:13:22;6.45;;;4.30;;
3081;SDS011;1551;51.046;7.010;2023-07-08T08:16:11;5.90;;;4.20;;
3081;SDS011;1551;51.046;7.010;2023-07-08T08:19:00;6.60;;;4.35;;
3081;SDS011;1551;51.046;7.010;2023-07-08T08:21:48;5.60;;;4.60;;
3081;SDS011;1551;51.046;7.010;2023-07-08T08:24:37;6.90;;;4.30;;
3081;SDS011;1551;51.046;7.010;2023-07-08T08:27:26;6.55;;;4.07;;
3081;SDS011;1551;51.046;7.010;2023-07-08T08:30:15;5.03;;;4.20;;
3081;SDS011;1551;51.046;7.010;2023-07-08T08:33:05;5.90;;;4.13;;
3081;SDS011;1551;51.046;7.010;2023-07-08T08:35:54;6.30;;;4.13;;
3081;SDS011;1551;51.046;7.010;2023-07-08T08:38:43;5.15;;;3.83;;
3081;SDS011;1551;51.046;7.010;2023-07-08T08:41:33;5.80;;;4.47;;
3081;SDS011;1551;51.046;7.010;2023-07-08T08:44:26;4.95;;;3.90;;
3081;SDS011;1551;51.046;7.010;2023-07-08T08:50:32;5.95;;;4.32;;
3081;SDS011;1551;51.046;7.010;2023-07-08T08:53:27;5.37;;;3.83;;
3081;SDS011;1551;51.046;7.010;2023-07-08T08:56:24;5.10;;;3.90;;
3081;SDS011;1551;51.046;7.010;2023-07-08T08:59:22;5.33;;;4.20;;
3081;SDS011;1551;51.046;7.010;2023-07-08T09:02:36;5.15;;;3.50;;
3081;SDS011;1551;51.046;7.010;2023-07-08T09:05:31;6.05;;;4.20;;
3081;SDS011;1551;51.046;7.010;2023-07-08T09:08:22;7.38;;;3.88;;
3081;SDS011;1551;51.046;7.010;2023-07-08T09:14:15;5.90;;;4.30;;
3081;SDS011;1551;51.046;7.010;2023-07-08T09:17:32;4.50;;;3.40;;
3081;SDS011;1551;51.046;7.010;2023-07-08T09:26:21;6.22;;;3.78;;
3081;SDS011;1551;51.046;7.010;2023-07-08T09:29:13;5.65;;;3.70;;
3081;SDS011;1551;51.046;7.010;2023-07-08T09:35:09;5.60;;;3.95;;
3081;SDS011;1551;51.046;7.010;2023-07-08T09:38:14;5.20;;;3.57;;
3081;SDS011;1551;51.046;7.010;2023-07-08T09:41:06;5.00;;;3.67;;
3081;SDS011;1551;51.046;7.010;2023-07-08T09:44:02;6.13;;;3.70;;
3081;SDS011;1551;51.046;7.010;2023-07-08T09:46:53;6.78;;;3.78;;
3081;SDS011;1551;51.046;7.010;2023-07-08T09:49:43;5.20;;;3.55;;
3081;SDS011;1551;51.046;7.010;2023-07-08T09:52:33;5.18;;;3.67;;
3081;SDS011;1551;51.046;7.010;2023-07-08T09:55:21;6.27;;;4.00;;
3081;SDS011;1551;51.046;7.010;2023-07-08T10:01:21;5.50;;;3.60;;
3081;SDS011;1551;51.046;7.010;2023-07-08T10:04:13;6.63;;;3.70;;
3081;SDS011;1551;51.046;7.010;2023-07-08T10:07:02;5.63;;;3.90;;
3081;SDS011;1551;51.046;7.010;2023-07-08T10:10:02;5.00;;;3.50;;
3081;SDS011;1551;51.046;7.010;2023-07-08T10:12:57;5.45;;;3.80;;
3081;SDS011;1551;51.046;7.010;2023-07-08T10:15:54;5.10;;;3.20;;
3081;SDS011;1551;51.046;7.010;2023-07-08T10:18:45;7.13;;;3.30;;
3081;SDS011;1551;51.046;7.010;2023-07-08T10:21:47;5.57;;;3.50;;
3081;SDS011;1551;51.046;7.010;2023-07-08T10:25:02;6.57;;;3.55;;
3081;SDS011;1551;51.046;7.010;2023-07-08T10:28:06;4.72;;;3.33;;
3081;SDS011;1551;51.046;7.010;2023-07-08T10:31:38;5.80;;;4.00;;
3081;SDS011;1551;51.046;7.010;2023-07-08T10:43:58;5.73;;;3.30;;
3081;SDS011;1551;51.046;7.010;2023-07-08T10:50:13;4.90;;;3.40;;
3081;SDS011;1551;51.046;7.010;2023-07-08T10:53:28;4.80;;;3.42;;
3081;SDS011;1551;51.046;7.010;2023-07-08T10:56:41;4.70;;;3.65;;
3081;SDS011;1551;51.046;7.010;2023-07-08T11:05:58;5.28;;;3.55;;
3081;SDS011;1551;51.046;7.010;2023-07-08T11:08:56;4.95;;;3.63;;
3081;SDS011;1551;51.046;7.010;2023-07-08T11:12:02;4.53;;;3.35;;
3081;SDS011;1551;51.046;7.010;2023-07-08T11:15:06;5.47;;;3.50;;
3081;SDS011;1551;51.046;7.010;2023-07-08T11:18:16;5.20;;;3.60;;
3081;SDS011;1551;51.046;7.010;2023-07-08T11:21:12;6.72;;;3.20;;
3081;SDS011;1551;51.046;7.010;2023-07-08T11:24:48;5.50;;;3.92;;
3081;SDS011;1551;51.046;7.010;2023-07-08T11:27:37;4.15;;;2.90;;
3081;SDS011;1551;51.046;7.010;2023-07-08T11:30:30;4.80;;;3.30;;
3081;SDS011;1551;51.046;7.010;2023-07-08T11:33:23;4.32;;;3.25;;
3081;SDS011;1551;51.046;7.010;2023-07-08T11:36:14;4.30;;;3.20;;
3081;SDS011;1551;51.046;7.010;2023-07-08T11:39:04;7.10;;;3.60;;
3081;SDS011;1551;51.046;7.010;2023-07-08T11:45:23;5.32;;;3.67;;
3081;SDS011;1551;51.046;7.010;2023-07-08T11:48:23;5.33;;;3.57;;
3081;SDS011;1551;51.046;7.010;2023-07-08T11:51:18;4.30;;;3.10;;
3081;SDS011;1551;51.046;7.010;2023-07-08T11:54:28;4.37;;;2.60;;
3081;SDS011;1551;51.046;7.010;2023-07-08T11:57:24;6.53;;;3.20;;
3081;SDS011;1551;51.046;7.010;2023-07-08T12:00:22;5.47;;;3.20;;
3081;SDS011;1551;51.046;7.010;2023-07-08T12:03:20;5.75;;;3.10;;
3081;SDS011;1551;51.046;7.010;2023-07-08T12:09:28;5.50;;;3.50;;
3081;SDS011;1551;51.046;7.010;2023-07-08T12:12:24;4.30;;;2.92;;
3081;SDS011;1551;51.046;7.010;2023-07-08T12:15:22;4.68;;;3.00;;
3081;SDS011;1551;51.046;7.010;2023-07-08T12:18:14;6.88;;;3.58;;
3081;SDS011;1551;51.046;7.010;2023-07-08T12:21:07;6.07;;;3.50;;
3081;SDS011;1551;51.046;7.010;2023-07-08T12:24:02;4.83;;;2.93;;
3081;SDS011;1551;51.046;7.010;2023-07-08T12:26:52;5.65;;;3.33;;
3081;SDS011;1551;51.046;7.010;2023-07-08T12:29:41;5.47;;;3.60;;
3081;SDS011;1551;51.046;7.010;2023-07-08T12:32:30;5.45;;;3.20;;
3081;SDS011;1551;51.046;7.010;2023-07-08T12:35:28;4.47;;;3.00;;
3081;SDS011;1551;51.046;7.010;2023-07-08T12:44:13;4.75;;;2.85;;
3081;SDS011;1551;51.046;7.010;2023-07-08T12:47:07;5.70;;;3.30;;
3081;SDS011;1551;51.046;7.010;2023-07-08T12:49:57;5.13;;;2.70;;
3081;SDS011;1551;51.046;7.010;2023-07-08T12:52:46;5.15;;;3.30;;
3081;SDS011;1551;51.046;7.010;2023-07-08T12:55:37;6.38;;;3.47;;
3081;SDS011;1551;51.046;7.010;2023-07-08T12:58:32;5.90;;;3.13;;
3081;SDS011;1551;51.046;7.010;2023-07-08T13:01:26;5.43;;;2.90;;
3081;SDS011;1551;51.046;7.010;2023-07-08T13:04:18;5.03;;;2.92;;
3081;SDS011;1551;51.046;7.010;2023-07-08T13:07:22;4.95;;;3.47;;
3081;SDS011;1551;51.046;7.010;2023-07-08T13:10:20;6.72;;;3.60;;
3081;SDS011;1551;51.046;7.010;2023-07-08T13:13:13;4.30;;;3.22;;
3081;SDS011;1551;51.046;7.010;2023-07-08T13:16:07;4.30;;;3.20;;
3081;SDS011;1551;51.046;7.010;2023-07-08T13:18:59;5.20;;;3.30;;
3081;SDS011;1551;51.046;7.010;2023-07-08T13:21:48;4.80;;;3.45;;
3081;SDS011;1551;51.046;7.010;2023-07-08T13:24:39;3.88;;;3.10;;
3081;SDS011;1551;51.046;7.010;2023-07-08T13:27:29;5.47;;;3.40;;
3081;SDS011;1551;51.046;7.010;2023-07-08T13:30:19;7.30;;;3.78;;
3081;SDS011;1551;51.046;7.010;2023-07-08T13:33:16;6.70;;;3.63;;
3081;SDS011;1551;51.046;7.010;2023-07-08T13:36:06;5.15;;;3.90;;
3081;SDS011;1551;51.046;7.010;2023-07-08T13:38:56;4.93;;;3.50;;
3081;SDS011;1551;51.046;7.010;2023-07-08T13:41:45;5.83;;;3.30;;
3081;SDS011;1551;51.046;7.010;2023-07-08T13:44:34;6.47;;;4.30;;
3081;SDS011;1551;51.046;7.010;2023-07-08T13:47:30;5.50;;;4.18;;
3081;SDS011;1551;51.046;7.010;2023-07-08T13:50:22;6.43;;;3.83;;
3081;SDS011;1551;51.046;7.010;2023-07-08T13:53:23;5.25;;;3.42;;
3081;SDS011;1551;51.046;7.010;2023-07-08T13:56:33;4.67;;;3.23;;
3081;SDS011;1551;51.046;7.010;2023-07-08T13:59:24;6.20;;;3.90;;
3081;SDS011;1551;51.046;7.010;2023-07-08T14:02:19;4.97;;;3.45;;
3081;SDS011;1551;51.046;7.010;2023-07-08T14:05:11;5.13;;;3.50;;
3081;SDS011;1551;51.046;7.010;2023-07-08T14:08:02;5.90;;;3.20;;
3081;SDS011;1551;51.046;7.010;2023-07-08T14:10:51;5.93;;;3.90;;
3081;SDS011;1551;51.046;7.010;2023-07-08T14:13:39;5.95;;;3.75;;
3081;SDS011;1551;51.046;7.010;2023-07-08T14:16:30;6.68;;;3.47;;
3081;SDS011;1551;51.046;7.010;2023-07-08T14:19:26;8.60;;;4.40;;
3081;SDS011;1551;51.046;7.010;2023-07-08T14:22:25;5.18;;;3.70;;
3081;SDS011;1551;51.046;7.010;2023-07-08T14:25:16;5.70;;;4.23;;
3081;SDS011;1551;51.046;7.010;2023-07-08T14:28:07;5.60;;;4.00;;
3081;SDS011;1551;51.046;7.010;2023-07-08T14:30:56;6.50;;;3.72;;
3081;SDS011;1551;51.046;7.010;2023-07-08T14:33:44;7.65;;;4.30;;
3081;SDS011;1551;51.046;7.010;2023-07-08T14:36:33;6.13;;;4.30;;
3081;SDS011;1551;51.046;7.010;2023-07-08T14:39:23;8.05;;;4.07;;
3081;SDS011;1551;51.046;7.010;2023-07-08T14:42:12;7.70;;;3.67;;
3081;SDS011;1551;51.046;7.010;2023-07-08T14:45:03;6.20;;;4.20;;
3081;SDS011;1551;51.046;7.010;2023-07-08T14:47:53;5.57;;;4.30;;
3081;SDS011;1551;51.046;7.010;2023-07-08T14:50:42;5.00;;;3.57;;
3081;SDS011;1551;51.046;7.010;2023-07-08T14:53:32;6.95;;;4.25;;
3081;SDS011;1551;51.046;7.010;2023-07-08T14:56:21;5.60;;;3.55;;
3081;SDS011;1551;51.046;7.010;2023-07-08T14:59:12;8.18;;;4.20;;
3081;SDS011;1551;51.046;7.010;2023-07-08T15:02:17;5.53;;;3.50;;
3081;SDS011;1551;51.046;7.010;2023-07-08T15:05:18;4.75;;;3.55;;
3081;SDS011;1551;51.046;7.010;2023-07-08T15:08:08;5.97;;;4.10;;
3081;SDS011;1551;51.046;7.010;2023-07-08T15:10:57;5.10;;;3.90;;
3081;SDS011;1551;51.046;7.010;2023-07-08T15:13:47;5.55;;;4.00;;
3081;SDS011;1551;51.046;7.010;2023-07-08T15:16:36;6.95;;;3.80;;
3081;SDS011;1551;51.046;7.010;2023-07-08T15:19:25;5.47;;;3.90;;
3081;SDS011;1551;51.046;7.010;2023-07-08T15:22:14;6.47;;;3.88;;
3081;SDS011;1551;51.046;7.010;2023-07-08T15:25:03;5.70;;;3.87;;
3081;SDS011;1551;51.046;7.010;2023-07-08T15:27:53;5.82;;;4.13;;
3081;SDS011;1551;51.046;7.010;2023-07-08T15:30:44;5.80;;;3.75;;
3081;SDS011;1551;51.046;7.010;2023-07-08T15:33:34;5.78;;;3.95;;
3081;SDS011;1551;51.046;7.010;2023-07-08T15:36:23;5.57;;;3.40;;
3081;SDS011;1551;51.046;7.010;2023-07-08T15:39:12;6.55;;;3.95;;
3081;SDS011;1551;51.046;7.010;2023-07-08T15:42:04;6.40;;;3.70;;
3081;SDS011;1551;51.046;7.010;2023-07-08T15:44:57;5.38;;;3.53;;
3081;SDS011;1551;51.046;7.010;2023-07-08T15:47:46;7.40;;;4.50;;
3081;SDS011;1551;51.046;7.010;2023-07-08T15:50:35;5.47;;;3.85;;
3081;SDS011;1551;51.046;7.010;2023-07-08T15:53:24;6.57;;;4.07;;
3081;SDS011;1551;51.046;7.010;2023-07-08T15:56:14;6.72;;;3.90;;
3081;SDS011;1551;51.046;7.010;2023-07-08T15:59:09;5.10;;;3.80;;
3081;SDS011;1551;51.046;7.010;2023-07-08T16:02:11;5.30;;;3.72;;
3081;SDS011;1551;51.046;7.010;2023-07-08T16:05:12;7.47;;;4.20;;
3081;SDS011;1551;51.046;7.010;2023-07-08T16:08:01;6.17;;;4.30;;
3081;SDS011;1551;51.046;7.010;2023-07-08T16:10:57;5.70;;;4.10;;
3081;SDS011;1551;51.046;7.010;2023-07-08T16:13:48;6.00;;;3.50;;
3081;SDS011;1551;51.046;7.010;2023-07-08T16:16:38;6.72;;;3.97;;
3081;SDS011;1551;51.046;7.010;2023-07-08T16:19:27;7.90;;;4.15;;
3081;SDS011;1551;51.046;7.010;2023-07-08T16:22:18;6.00;;;4.13;;
3081;SDS011;1551;51.046;7.010;2023-07-08T16:25:07;5.55;;;4.32;;
3081;SDS011;1551;51.046;7.010;2023-07-08T16:28:00;5.40;;;4.20;;
3081;SDS011;1551;51.046;7.010;2023-07-08T16:30:49;5.20;;;4.10;;
3081;SDS011;1551;51.046;7.010;2023-07-08T16:33:39;7.88;;;4.03;;
3081;SDS011;1551;51.046;7.010;2023-07-08T16:36:29;5.63;;;4.05;;
3081;SDS011;1551;51.046;7.010;2023-07-08T16:39:20;7.18;;;4.47;;
3081;SDS011;1551;51.046;7.010;2023-07-08T16:42:09;5.93;;;4.18;;
3081;SDS011;1551;51.046;7.010;2023-07-08T16:45:07;6.78;;;4.43;;
3081;SDS011;1551;51.046;7.010;2023-07-08T16:47:59;5.97;;;3.50;;
3081;SDS011;1551;51.046;7.010;2023-07-08T16:50:48;5.70;;;3.75;;
3081;SDS011;1551;51.046;7.010;2023-07-08T16:53:37;6.03;;;4.00;;
3081;SDS011;1551;51.046;7.010;2023-07-08T16:56:25;6.72;;;3.95;;
3081;SDS011;1551;51.046;7.010;2023-07-08T16:59:15;5.32;;;4.20;;
3081;SDS011;1551;51.046;7.010;2023-07-08T17:02:10;5.65;;;3.92;;
3081;SDS011;1551;51.046;7.010;2023-07-08T17:05:02;6.70;;;4.40;;
3081;SDS011;1551;51.046;7.010;2023-07-08T17:08:05;7.90;;;3.97;;
3081;SDS011;1551;51.046;7.010;2023-07-08T17:10:54;5.10;;;4.03;;
3081;SDS011;1551;51.046;7.010;2023-07-08T17:13:43;6.38;;;4.40;;
3081;SDS011;1551;51.046;7.010;2023-07-08T17:16:33;5.13;;;4.00;;
3081;SDS011;1551;51.046;7.010;2023-07-08T17:19:24;5.10;;;4.07;;
3081;SDS011;1551;51.046;7.010;2023-07-08T17:22:12;6.80;;;4.60;;
3081;SDS011;1551;51.046;7.010;2023-07-08T17:25:02;6.68;;;3.90;;
3081;SDS011;1551;51.046;7.010;2023-07-08T17:27:52;5.82;;;4.38;;
3081;SDS011;1551;51.046;7.010;2023-07-08T17:30:43;6.30;;;4.60;;
3081;SDS011;1551;51.046;7.010;2023-07-08T17:33:35;5.40;;;4.30;;
3081;SDS011;1551;51.046;7.010;2023-07-08T17:36:28;8.05;;;4.13;;
3081;SDS011;1551;51.046;7.010;2023-07-08T17:39:19;6.53;;;4.10;;
3081;SDS011;1551;51.046;7.010;2023-07-08T17:42:09;7.65;;;4.45;;
3081;SDS011;1551;51.046;7.010;2023-07-08T17:44:58;5.03;;;3.60;;
3081;SDS011;1551;51.046;7.010;2023-07-08T17:47:47;7.88;;;4.40;;
3081;SDS011;1551;51.046;7.010;2023-07-08T17:50:37;6.10;;;4.60;;
3081;SDS011;1551;51.046;7.010;2023-07-08T17:53:26;6.13;;;4.57;;
3081;SDS011;1551;51.046;7.010;2023-07-08T17:56:20;8.37;;;4.83;;
3081;SDS011;1551;51.046;7.010;2023-07-08T17:59:17;6.97;;;4.40;;
3081;SDS011;1551;51.046;7.010;2023-07-08T18:02:12;8.10;;;4.53;;
3081;SDS011;1551;51.046;7.010;2023-07-08T18:05:03;7.20;;;4.38;;
3081;SDS011;1551;51.046;7.010;2023-07-08T18:07:53;6.38;;;3.75;;
3081;SDS011;1551;51.046;7.010;2023-07-08T18:10:42;5.65;;;4.10;;
3081;SDS011;1551;51.046;7.010;2023-07-08T18:13:32;6.75;;;4.50;;
3081;SDS011;1551;51.046;7.010;2023-07-08T18:16:25;5.68;;;3.72;;
3081;SDS011;1551;51.046;7.010;2023-07-08T18:19:16;5.50;;;3.87;;
3081;SDS011;1551;51.046;7.010;2023-07-08T18:22:05;5.82;;;3.90;;
3081;SDS011;1551;51.046;7.010;2023-07-08T18:24:54;5.72;;;3.40;;
3081;SDS011;1551;51.046;7.010;2023-07-08T18:27:43;5.70;;;3.30;;
3081;SDS011;1551;51.046;7.010;2023-07-08T18:30:32;5.13;;;3.60;;
3081;SDS011;1551;51.046;7.010;2023-07-08T18:33:23;4.38;;;3.50;;
3081;SDS011;1551;51.046;7.010;2023-07-08T18:36:13;5.30;;;3.42;;
3081;SDS011;1551;51.046;7.010;2023-07-08T18:39:03;5.70;;;3.65;;
3081;SDS011;1551;51.046;7.010;2023-07-08T18:41:52;4.73;;;3.20;;
3081;SDS011;1551;51.046;7.010;2023-07-08T18:44:41;4.47;;;2.85;;